Time;durP1;ratioP1;P1;durP2;ratioP2;P2;SDS_P1;SDS_P2;PMS_P1;PMS_P2;Temp;Humidity;BMP_temperature;BMP_pressure;BME280_temperature;BME280_humidity;BME280_pressure;Samples;Min_cycle;Max_cycle;Signal;HPM_P1;HPM_P2
2022/02/19 00:00:26;;;;;;;0.50;0.50;;;;;;;6.77;100.00;98720.03;5112172;28;20054;-77
2022/02/19 00:03:31;;;;;;;10.63;0.82;;;;;;;6.65;100.00;98739.66;5111787;28;20054;-77
2022/02/19 00:06:37;;;;;;;0.10;0.10;;;;;;;6.62;100.00;98746.16;5111706;28;20059;-77
2022/02/19 00:09:41;;;;;;;0.40;0.38;;;;;;;6.61;100.00;98750.16;5112437;28;20686;-77
2022/02/19 00:12:44;;;;;;;1.02;0.47;;;;;;;6.60;100.00;98754.16;5110767;28;20063;-76
2022/02/19 00:15:47;;;;;;;6.32;0.52;;;;;;;6.51;100.00;98762.53;5111474;28;20405;-77
2022/02/19 00:18:51;;;;;;;0.38;0.38;;;;;;;6.41;100.00;98774.94;5111914;28;20054;-77
2022/02/19 00:21:54;;;;;;;0.30;0.30;;;;;;;6.43;100.00;98773.19;5111975;28;20056;-77
2022/02/19 00:24:57;;;;;;;1.50;0.57;;;;;;;6.44;100.00;98773.97;5111941;28;20046;-77
2022/02/19 00:28:00;;;;;;;0.30;0.30;;;;;;;6.47;100.00;98775.78;5110532;28;20050;-77
2022/02/19 00:31:04;;;;;;;4.88;0.60;;;;;;;6.43;100.00;98773.19;5111521;28;20532;-77
2022/02/19 00:34:08;;;;;;;0.10;0.10;;;;;;;6.46;100.00;98793.59;5077285;28;20055;-77
2022/02/19 00:37:12;;;;;;;0.20;0.20;;;;;;;6.45;100.00;98786.56;5086390;28;20074;-76
2022/02/19 00:40:15;;;;;;;0.15;0.15;;;;;;;6.48;100.00;98804.97;5108236;28;20054;-77
2022/02/19 00:43:18;;;;;;;0.20;0.20;;;;;;;6.48;100.00;98802.19;5069883;28;20056;-76
2022/02/19 00:46:22;;;;;;;19.30;0.75;;;;;;;6.50;100.00;98808.00;5072501;28;20060;-77
2022/02/19 00:49:25;;;;;;;0.20;0.20;;;;;;;6.50;100.00;98824.59;5109976;28;20051;-77
2022/02/19 00:52:29;;;;;;;1.00;0.40;;;;;;;6.53;100.00;98831.97;5110386;28;20059;-77
2022/02/19 00:55:32;;;;;;;1.25;0.28;;;;;;;6.48;100.00;98838.91;5099943;28;20055;-77
2022/02/19 00:58:38;;;;;;;0.10;0.10;;;;;;;6.48;100.00;98841.69;5109886;28;20055;-77
2022/02/19 01:01:41;;;;;;;23.88;1.23;;;;;;;6.52;100.00;98847.06;5110013;28;20051;-76
2022/02/19 01:04:45;;;;;;;3.83;1.58;;;;;;;6.49;100.00;98848.75;5109536;28;20148;-77
2022/02/19 01:07:48;;;;;;;0.20;0.20;;;;;;;6.50;100.00;98852.25;5109494;28;20059;-77
2022/02/19 01:10:52;;;;;;;0.95;0.88;;;;;;;6.50;100.00;98853.03;5109272;28;20054;-77
2022/02/19 01:13:55;;;;;;;0.20;0.20;;;;;;;6.31;100.00;98856.41;5109397;28;20062;-76
2022/02/19 01:16:58;;;;;;;0.10;0.10;;;;;;;6.32;100.00;98869.00;5109753;28;20062;-77
2022/02/19 01:20:02;;;;;;;0.28;0.28;;;;;;;6.37;100.00;98873.84;5110717;28;20051;-77
2022/02/19 01:23:06;;;;;;;5.43;0.47;;;;;;;6.35;100.00;98873.56;5110579;28;20420;-77
2022/02/19 01:26:10;;;;;;;3.72;0.93;;;;;;;6.37;100.00;98873.84;5109312;28;20051;-77
2022/02/19 01:29:13;;;;;;;0.15;0.15;;;;;;;6.32;100.00;98889.13;5108987;28;20055;-77
2022/02/19 01:32:16;;;;;;;0.40;0.40;;;;;;;6.31;100.00;98897.88;5110498;28;20054;-77
2022/02/19 01:35:20;;;;;;;0.80;0.80;;;;;;;6.32;100.00;98911.25;5110433;28;20061;-77
2022/02/19 01:38:24;;;;;;;0.10;0.10;;;;;;;6.30;100.00;98890.81;5109532;28;20047;-77
2022/02/19 01:41:27;;;;;;;1.85;0.30;;;;;;;6.28;100.00;98907.13;5089688;28;20059;-77
2022/02/19 01:44:37;;;;;;;0.20;0.20;;;;;;;6.28;100.00;98915.41;5089304;28;20055;-77
2022/02/19 01:47:41;;;;;;;13.55;0.55;;;;;;;6.18;100.00;98900.88;5088318;28;20054;-76
2022/02/19 01:50:45;;;;;;;0.10;0.10;;;;;;;6.09;100.00;98912.72;5089612;28;20059;-77
2022/02/19 01:53:49;;;;;;;1.10;0.93;;;;;;;6.03;100.00;98911.84;5088630;28;20051;-76
2022/02/19 01:56:53;;;;;;;0.30;0.22;;;;;;;6.07;100.00;98920.72;5093622;28;20054;-77
2022/02/19 01:59:57;;;;;;;3.78;0.22;;;;;;;6.07;100.00;98928.25;5109409;28;20059;-77
2022/02/19 02:03:01;;;;;;;2.28;0.38;;;;;;;6.00;100.00;98923.06;5109837;28;20058;-77
2022/02/19 02:06:05;;;;;;;0.45;0.35;;;;;;;5.96;100.00;98923.22;5108862;28;20071;-77
2022/02/19 02:09:08;;;;;;;0.38;0.38;;;;;;;5.96;100.00;98939.81;5109629;28;20063;-77
2022/02/19 02:12:11;;;;;;;0.82;0.82;;;;;;;5.90;100.00;98940.91;5108882;28;20062;-77
2022/02/19 02:15:30;;;;;;;0.28;0.28;;;;;;;5.83;100.00;98946.72;5108430;28;20456;-77
2022/02/19 02:18:33;;;;;;;0.10;0.10;;;;;;;5.86;100.00;98935.56;5108313;28;20054;-76
2022/02/19 02:21:38;;;;;;;0.10;0.10;;;;;;;5.85;100.00;98945.06;5108792;28;20066;-76
2022/02/19 02:24:42;;;;;;;5.35;0.73;;;;;;;5.65;100.00;98955.81;5091403;28;20119;-76
2022/02/19 02:27:45;;;;;;;12.15;0.57;;;;;;;5.46;100.00;98948.06;5094457;28;20058;-77
2022/02/19 02:30:49;;;;;;;0.20;0.20;;;;;;;5.46;100.00;98951.56;5108752;28;20051;-77
2022/02/19 02:33:53;;;;;;;0.90;0.90;;;;;;;5.43;100.00;98958.03;5108457;28;20058;-76
2022/02/19 02:36:56;;;;;;;1.00;0.20;;;;;;;5.57;100.00;98962.91;5108731;28;20059;-77
2022/02/19 02:39:59;;;;;;;20.67;0.63;;;;;;;5.57;100.00;98951.88;5099236;28;20051;-76
2022/02/19 02:43:03;;;;;;;2.55;0.50;;;;;;;5.38;100.00;98951.13;5088617;28;20055;-76
2022/02/19 02:46:07;;;;;;;15.02;0.75;;;;;;;5.30;100.00;98954.69;5088486;28;20377;-77
2022/02/19 02:49:11;;;;;;;0.30;0.30;;;;;;;5.28;100.00;98952.34;5068060;28;20051;-76
2022/02/19 02:52:14;;;;;;;0.10;0.10;;;;;;;5.31;100.00;98956.97;5068470;28;20397;-77
2022/02/19 02:55:18;;;;;;;0.30;0.30;;;;;;;5.29;100.00;98951.16;5068086;28;20790;-76
2022/02/19 02:58:21;;;;;;;0.10;0.10;;;;;;;5.23;100.00;98954.97;5103381;28;20468;-77
2022/02/19 03:01:25;;;;;;;1.42;0.63;;;;;;;5.21;100.00;98952.69;5108838;28;20051;-76
2022/02/19 03:04:30;;;;;;;0.17;0.17;;;;;;;5.27;100.00;98959.13;5099651;28;20063;-76
2022/02/19 03:07:35;;;;;;;0.20;0.20;;;;;;;5.21;100.00;98957.44;5098661;28;20058;-77
2022/02/19 03:10:38;;;;;;;0.20;0.20;;;;;;;5.23;100.00;98960.50;5109012;28;21023;-76
2022/02/19 03:13:42;;;;;;;3.60;0.85;;;;;;;5.21;100.00;98965.72;5108898;28;21019;-76
2022/02/19 03:16:45;;;;;;;0.95;0.55;;;;;;;5.19;100.00;98965.41;5107689;28;20062;-76
2022/02/19 03:19:49;;;;;;;0.20;0.20;;;;;;;5.20;100.00;98966.94;5109602;28;20050;-76
2022/02/19 03:22:52;;;;;;;0.30;0.30;;;;;;;5.15;100.00;98975.84;5108432;28;20051;-76
2022/02/19 03:25:55;;;;;;;0.20;0.20;;;;;;;5.08;100.00;98974.16;5109074;28;20055;-77
2022/02/19 03:28:59;;;;;;;0.25;0.25;;;;;;;5.15;100.00;98984.13;5108969;28;20054;-76
2022/02/19 03:32:04;;;;;;;0.30;0.30;;;;;;;5.14;100.00;98980.59;5108388;28;20050;-76
2022/02/19 03:35:08;;;;;;;0.30;0.30;;;;;;;5.19;100.00;98987.50;5108307;28;20072;-77
2022/02/19 03:38:11;;;;;;;0.22;0.22;;;;;;;5.11;100.00;98981.50;5108931;28;20047;-76
2022/02/19 03:41:14;;;;;;;0.30;0.30;;;;;;;5.18;100.00;98977.66;5090252;28;20055;-77
2022/02/19 03:44:18;;;;;;;0.35;0.35;;;;;;;5.13;100.00;98979.03;5087499;28;20051;-77
2022/02/19 03:47:21;;;;;;;0.30;0.30;;;;;;;5.05;100.00;98982.56;5087825;28;20047;-76
2022/02/19 03:50:24;;;;;;;0.30;0.30;;;;;;;5.04;100.00;98978.28;5087345;28;20489;-76
2022/02/19 03:53:28;;;;;;;0.52;0.52;;;;;;;4.99;100.00;98976.13;5090774;28;20174;-77
2022/02/19 03:56:32;;;;;;;2.72;0.73;;;;;;;5.00;100.00;98980.44;5093441;28;20063;-77
2022/02/19 03:59:35;;;;;;;0.30;0.30;;;;;;;4.87;100.00;98977.06;5111647;28;20051;-77
2022/02/19 04:02:38;;;;;;;0.20;0.20;;;;;;;4.95;100.00;98983.81;5111096;28;20049;-76
2022/02/19 04:05:42;;;;;;;0.85;0.50;;;;;;;4.94;100.00;98991.31;5111156;28;20042;-77
2022/02/19 04:08:45;;;;;;;0.30;0.30;;;;;;;4.90;100.00;98987.16;5111805;28;20421;-76
2022/02/19 04:11:49;;;;;;;0.10;0.10;;;;;;;4.82;100.00;98992.22;5111093;28;20496;-76
2022/02/19 04:14:52;;;;;;;0.20;0.20;;;;;;;4.86;100.00;98992.06;5110902;28;20046;-77
2022/02/19 04:17:55;;;;;;;10.82;0.82;;;;;;;4.90;100.00;98992.69;5111992;28;20413;-76
2022/02/19 04:20:59;;;;;;;0.85;0.50;;;;;;;4.86;100.00;98981.81;5106109;28;20505;-77
2022/02/19 04:24:02;;;;;;;0.43;0.40;;;;;;;4.84;100.00;98986.25;5090993;28;20519;-76
2022/02/19 04:27:06;;;;;;;0.15;0.15;;;;;;;4.83;100.00;98981.97;5098095;28;20058;-76
2022/02/19 04:30:10;;;;;;;23.27;0.88;;;;;;;4.81;100.00;98987.91;5106470;28;20047;-76
2022/02/19 04:33:14;;;;;;;2.88;0.55;;;;;;;4.74;100.00;98990.22;5070665;28;20422;-76
2022/02/19 04:36:17;;;;;;;0.40;0.40;;;;;;;4.67;100.00;98996.03;5071365;28;20067;-77
2022/02/19 04:39:21;;;;;;;0.38;0.38;;;;;;;4.61;100.00;99002.13;5108050;28;20061;-77
2022/02/19 04:42:25;;;;;;;0.32;0.32;;;;;;;4.61;100.00;98999.38;5096527;28;20043;-76
2022/02/19 04:45:28;;;;;;;0.15;0.15;;;;;;;4.57;100.00;98998.75;5110465;28;20054;-77
2022/02/19 04:48:32;;;;;;;0.13;0.13;;;;;;;4.51;100.00;98994.28;5090885;28;20047;-76
2022/02/19 04:51:36;;;;;;;0.28;0.28;;;;;;;4.45;100.00;99002.41;5090699;28;20055;-76
2022/02/19 04:54:40;;;;;;;11.45;0.75;;;;;;;4.44;100.00;99011.13;5089941;28;20497;-76
2022/02/19 04:57:45;;;;;;;0.38;0.38;;;;;;;4.52;100.00;99013.16;5099367;28;20054;-77
2022/02/19 05:00:49;;;;;;;0.77;0.77;;;;;;;4.42;100.00;99006.06;5109538;28;20050;-76
2022/02/19 05:03:54;;;;;;;0.30;0.30;;;;;;;4.46;100.00;99003.19;5070328;28;20063;-77
2022/02/19 05:06:57;;;;;;;0.40;0.40;;;;;;;4.47;100.00;99002.72;5082345;28;20058;-76
2022/02/19 05:10:01;;;;;;;0.52;0.52;;;;;;;4.47;100.00;98988.94;5110500;28;20050;-77
2022/02/19 05:13:05;;;;;;;0.40;0.40;;;;;;;4.55;100.00;98992.94;5110821;28;20051;-76
2022/02/19 05:16:08;;;;;;;0.65;0.65;;;;;;;4.54;100.00;98994.16;5110014;28;20074;-77
2022/02/19 05:19:12;;;;;;;0.10;0.10;;;;;;;4.47;100.00;98997.19;5110106;28;20055;-77
2022/02/19 05:22:16;;;;;;;0.35;0.35;;;;;;;4.39;100.00;98992.44;5111540;28;20528;-77
2022/02/19 05:25:19;;;;;;;0.95;0.88;;;;;;;4.37;100.00;99001.16;5111775;28;20070;-77
2022/02/19 05:28:23;;;;;;;0.13;0.13;;;;;;;4.36;100.00;98994.09;5110590;28;20058;-77
2022/02/19 05:31:26;;;;;;;1.23;0.70;;;;;;;4.40;100.00;98991.19;5109767;28;20051;-77
2022/02/19 05:34:30;;;;;;;1.02;0.93;;;;;;;4.42;100.00;98986.75;5110248;28;20050;-77
2022/02/19 05:37:34;;;;;;;0.17;0.17;;;;;;;4.39;100.00;98995.19;5110051;28;20051;-76
2022/02/19 05:40:38;;;;;;;0.28;0.28;;;;;;;4.44;100.00;98987.06;5095992;28;20051;-76
2022/02/19 05:43:41;;;;;;;0.38;0.38;;;;;;;4.51;100.00;98997.03;5103016;28;20070;-76
2022/02/19 05:46:45;;;;;;;21.17;0.90;;;;;;;4.55;100.00;99000.41;5103889;28;20051;-76
2022/02/19 05:49:49;;;;;;;0.30;0.30;;;;;;;4.73;100.00;99005.22;5089659;28;20696;-76
2022/02/19 05:52:53;;;;;;;0.30;0.30;;;;;;;4.90;100.00;98998.19;5088755;28;20051;-76
2022/02/19 05:55:56;;;;;;;0.75;0.50;;;;;;;4.96;100.00;98999.13;5088886;28;20059;-77
2022/02/19 05:59:00;;;;;;;0.30;0.30;;;;;;;4.84;100.00;98997.28;5088675;28;20063;-77
2022/02/19 06:02:04;;;;;;;0.13;0.13;;;;;;;4.72;100.00;99001.69;5089555;28;20055;-76
2022/02/19 06:05:08;;;;;;;2.45;0.55;;;;;;;4.69;100.00;99002.63;5088825;28;20067;-76
2022/02/19 06:08:11;;;;;;;0.40;0.40;;;;;;;4.54;100.00;98993.38;5105966;28;20054;-76
2022/02/19 06:11:14;;;;;;;0.20;0.20;;;;;;;4.34;100.00;99004.81;5109863;28;20055;-76
2022/02/19 06:14:18;;;;;;;7.68;0.50;;;;;;;4.33;100.00;98999.75;5107817;28;20050;-77
2022/02/19 06:17:22;;;;;;;3.63;0.85;;;;;;;4.23;100.00;98996.19;5108212;28;20051;-77
2022/02/19 06:20:25;;;;;;;0.45;0.45;;;;;;;4.17;100.00;98992.50;5108891;28;20058;-76
2022/02/19 06:23:28;;;;;;;0.38;0.38;;;;;;;4.06;100.00;99000.41;5105519;28;20046;-76
2022/02/19 06:26:32;;;;;;;2.55;0.63;;;;;;;3.99;100.00;99002.66;5107114;28;20050;-76
2022/02/19 06:29:36;;;;;;;0.30;0.30;;;;;;;3.82;100.00;99005.66;5089189;28;20055;-76
2022/02/19 06:32:40;;;;;;;2.75;0.70;;;;;;;3.74;100.00;98993.38;5088424;28;20054;-76
2022/02/19 06:35:44;;;;;;;5.88;0.80;;;;;;;3.71;100.00;98994.25;5088583;28;20046;-77
2022/02/19 06:38:48;;;;;;;0.30;0.30;;;;;;;3.63;100.00;99004.00;5088122;28;20051;-77
2022/02/19 06:41:51;;;;;;;0.25;0.25;;;;;;;3.61;100.00;99005.66;5071505;28;20048;-76
2022/02/19 06:44:55;;;;;;;0.55;0.55;;;;;;;3.61;100.00;98998.19;5071477;28;20067;-76
2022/02/19 06:47:58;;;;;;;1.40;1.30;;;;;;;3.56;100.00;99006.22;5096637;28;20054;-77
2022/02/19 06:51:01;;;;;;;0.38;0.38;;;;;;;3.52;100.00;98997.34;5109398;28;20055;-76
2022/02/19 06:54:05;;;;;;;0.45;0.45;;;;;;;3.42;100.00;98991.00;5100160;28;20047;-76
2022/02/19 06:57:13;;;;;;;0.30;0.30;;;;;;;3.33;100.00;98992.94;5099335;28;20497;-76
2022/02/19 07:00:18;;;;;;;0.30;0.30;;;;;;;3.24;100.00;98990.88;5096065;28;20591;-76
2022/02/19 07:03:21;;;;;;;0.40;0.40;;;;;;;3.18;100.00;98978.16;5094311;28;20430;-76
2022/02/19 07:06:25;;;;;;;0.45;0.45;;;;;;;3.17;100.00;98976.59;5095405;28;20059;-77
2022/02/19 07:09:29;;;;;;;0.30;0.30;;;;;;;3.15;100.00;98988.06;5089177;28;20493;-76
2022/02/19 07:12:33;;;;;;;1.00;0.95;;;;;;;3.12;100.00;98991.69;5088463;28;20043;-76
2022/02/19 07:15:36;;;;;;;8.27;1.38;;;;;;;2.99;100.00;99008.25;5088323;28;20528;-76
2022/02/19 07:18:39;;;;;;;16.27;0.63;;;;;;;3.03;100.00;98994.38;5108708;28;20046;-76
2022/02/19 07:21:44;;;;;;;0.70;0.70;;;;;;;3.08;100.00;98986.31;5108966;28;20055;-76
2022/02/19 07:24:47;;;;;;;0.30;0.30;;;;;;;3.10;100.00;98991.38;5103795;28;20054;-76
2022/02/19 07:27:51;;;;;;;4.60;1.92;;;;;;;3.19;100.00;98990.66;5108661;28;20054;-77
2022/02/19 07:30:55;;;;;;;2.05;1.10;;;;;;;3.33;100.00;98998.44;5104599;28;20058;-76
2022/02/19 07:33:58;;;;;;;0.50;0.50;;;;;;;3.49;100.00;98995.47;5098479;28;20047;-77
2022/02/19 07:37:02;;;;;;;0.57;0.57;;;;;;;3.74;100.00;98992.59;5097907;28;20059;-76
2022/02/19 07:40:07;;;;;;;0.40;0.40;;;;;;;3.99;100.00;98997.91;5098753;28;20054;-77
2022/02/19 07:43:10;;;;;;;0.40;0.40;;;;;;;4.05;100.00;99001.63;5100114;28;20047;-77
2022/02/19 07:46:14;;;;;;;4.78;0.90;;;;;;;4.17;100.00;99002.75;5092671;28;20402;-76
2022/02/19 07:59:25;;;;;;;0.95;0.73;;;;;;;4.56;100.00;99004.72;5112415;28;20051;-76
2022/02/19 08:02:28;;;;;;;0.30;0.30;;;;;;;4.70;100.00;99008.91;5111525;28;20051;-77
2022/02/19 08:05:31;;;;;;;4.53;1.20;;;;;;;4.77;100.00;99005.84;5111761;28;20058;-76
2022/02/19 08:08:36;;;;;;;1.65;0.65;;;;;;;4.79;100.00;99009.66;5113021;28;20063;-76
2022/02/19 08:11:40;;;;;;;0.20;0.20;;;;;;;4.85;100.00;99001.56;5112168;28;20074;-76
2022/02/19 08:14:44;;;;;;;5.63;1.15;;;;;;;4.99;100.00;99012.00;5111029;28;20058;-76
2022/02/19 08:17:47;;;;;;;0.68;0.68;;;;;;;5.08;100.00;99020.28;5111818;28;20490;-76
2022/02/19 08:20:53;;;;;;;0.38;0.38;;;;;;;5.21;100.00;99009.88;5111528;28;20054;-76
2022/02/19 08:23:56;;;;;;;0.70;0.70;;;;;;;5.35;100.00;98998.22;5111542;28;20051;-76
2022/02/19 08:27:00;;;;;;;1.55;0.47;;;;;;;5.48;100.00;99007.09;5112015;28;20066;-76
2022/02/19 08:30:03;;;;;;;0.10;0.10;;;;;;;5.57;100.00;99000.81;5112361;28;20405;-77
2022/02/19 08:33:09;;;;;;;0.63;0.40;;;;;;;5.66;100.00;99003.56;5091930;28;20294;-77
2022/02/19 08:36:13;;;;;;;3.75;1.10;;;;;;;5.70;100.00;98993.88;5091170;28;20051;-77
2022/02/19 08:39:16;;;;;;;0.10;0.10;;;;;;;5.79;100.00;99002.16;5072224;28;20056;-77
2022/02/19 08:42:19;;;;;;;0.65;0.40;;;;;;;5.84;100.00;98998.81;5091569;28;20050;-79
2022/02/19 08:45:23;;;;;;;0.28;0.28;;;;;;;5.86;100.00;98992.81;5090662;28;20508;-78
2022/02/19 08:48:26;;;;;;;0.38;0.38;;;;;;;5.87;100.00;98995.09;5091590;28;20434;-78
2022/02/19 08:51:30;;;;;;;0.28;0.28;;;;;;;5.91;100.00;98986.66;5090659;28;20122;-79
2022/02/19 08:54:35;;;;;;;0.30;0.30;;;;;;;5.94;100.00;98986.50;5091012;28;20054;-78
2022/02/19 08:57:39;;;;;;;0.68;0.50;;;;;;;5.97;100.00;98985.56;5102261;28;20051;-78
2022/02/19 09:00:42;;;;;;;2.33;0.43;;;;;;;5.97;100.00;98980.03;5107816;28;20047;-78
2022/02/19 09:03:46;;;;;;;0.32;0.20;;;;;;;5.95;100.00;98960.41;5089947;28;20050;-79
2022/02/19 09:06:49;;;;;;;0.40;0.40;;;;;;;5.99;100.00;98955.47;5095953;28;20439;-78
2022/02/19 09:09:53;;;;;;;7.22;0.73;;;;;;;5.96;100.00;98953.63;5110492;28;20401;-78
2022/02/19 09:12:56;;;;;;;0.50;0.50;;;;;;;6.02;100.00;98946.22;5111046;28;20067;-79
2022/02/19 09:16:00;;;;;;;10.63;1.40;;;;;;;6.04;100.00;98935.47;5110791;28;20051;-77
2022/02/19 09:19:05;;;;;;;0.35;0.35;;;;;;;6.02;100.00;98931.66;5110166;28;20070;-77
2022/02/19 09:22:09;;;;;;;10.43;1.05;;;;;;;6.04;100.00;98929.94;5110427;28;20046;-80
2022/02/19 09:25:13;;;;;;;0.20;0.20;;;;;;;6.07;100.00;98929.03;5110945;28;20106;-80
2022/02/19 09:28:20;;;;;;;13.05;0.90;;;;;;;6.06;100.00;98926.72;5108816;28;20058;-80
2022/02/19 09:31:24;;;;;;;0.10;0.10;;;;;;;6.08;100.00;98900.16;5100336;28;20051;-78
2022/02/19 09:34:28;;;;;;;5.03;0.50;;;;;;;6.13;100.00;98891.22;5088804;28;20055;-78
2022/02/19 09:37:32;;;;;;;0.57;0.30;;;;;;;6.12;100.00;98897.22;5100110;28;20051;-80
2022/02/19 09:40:35;;;;;;;2.22;0.85;;;;;;;6.13;100.00;98879.38;5091991;28;20051;-80
2022/02/19 09:43:41;;;;;;;2.90;0.77;;;;;;;6.18;100.00;98887.03;5090130;28;20059;-80
2022/02/19 09:46:48;;;;;;;1.95;1.42;;;;;;;6.17;100.00;98879.22;5095812;28;20417;-78
2022/02/19 09:49:53;;;;;;;0.20;0.20;;;;;;;6.10;100.00;98878.34;5101428;28;20433;-80
2022/02/19 09:52:57;;;;;;;2.50;0.98;;;;;;;6.04;100.00;98873.94;5089819;28;20051;-79
2022/02/19 09:56:00;;;;;;;0.95;0.77;;;;;;;6.02;100.00;98871.59;5088558;28;20047;-80
2022/02/19 09:59:11;;;;;;;6.28;1.17;;;;;;;5.98;100.00;98859.97;5069465;28;20051;-81
2022/02/19 10:02:15;;;;;;;1.67;1.25;;;;;;;5.97;100.00;98847.41;5084633;28;20051;-81
2022/02/19 10:05:19;;;;;;;1.40;0.77;;;;;;;5.80;100.00;98837.94;5089031;28;20055;-80
2022/02/19 10:08:22;;;;;;;1.15;1.05;;;;;;;5.69;100.00;98836.91;5109362;28;20054;-82
2022/02/19 10:11:29;;;;;;;0.60;0.60;;;;;;;5.56;100.00;98817.78;5112141;28;20050;-83
2022/02/19 10:14:34;;;;;;;0.20;0.20;;;;;;;5.44;100.00;98815.22;5110778;28;20644;-82
2022/02/19 10:17:38;;;;;;;0.15;0.15;;;;;;;5.26;100.00;98805.03;5091845;28;20054;-82
2022/02/19 10:20:42;;;;;;;0.30;0.30;;;;;;;5.13;100.00;98787.91;5088709;28;20055;-81
2022/02/19 10:23:48;;;;;;;2.38;0.60;;;;;;;5.08;100.00;98769.19;5089559;28;20050;-80
2022/02/19 10:26:56;;;;;;;0.55;0.55;;;;;;;5.00;100.00;98759.72;5089091;28;20051;-80
2022/02/19 10:30:04;;;;;;;0.40;0.40;;;;;;;4.94;100.00;98745.00;5088872;28;20047;-80
2022/02/19 10:33:10;;;;;;;0.20;0.20;;;;;;;4.93;100.00;98729.69;5089351;28;20049;-79
2022/02/19 10:36:19;;;;;;;0.22;0.22;;;;;;;4.88;100.00;98711.00;5089224;28;20091;-79
2022/02/19 10:39:27;;;;;;;0.75;0.65;;;;;;;4.83;100.00;98689.59;5106312;28;20507;-80
2022/02/19 10:42:35;;;;;;;9.38;0.90;;;;;;;4.78;100.00;98681.94;5088376;28;20047;-79
2022/02/19 10:45:54;;;;;;;11.23;0.40;;;;;;;4.63;100.00;98659.00;5088616;28;20058;-79
2022/02/19 10:49:10;;;;;;;1.65;0.95;;;;;;;4.61;100.00;98640.19;5087583;28;20055;-79
2022/02/19 10:52:14;;;;;;;0.28;0.28;;;;;;;4.49;100.00;98622.59;5087880;28;20051;-79
2022/02/19 10:55:19;;;;;;;0.65;0.65;;;;;;;4.50;100.00;98590.28;5087927;28;20051;-80
2022/02/19 10:58:23;;;;;;;0.22;0.22;;;;;;;4.49;100.00;98574.97;5088954;28;20577;-81
2022/02/19 11:01:28;;;;;;;0.20;0.20;;;;;;;4.44;100.00;98550.81;5092141;28;20449;-79
2022/02/19 11:04:31;;;;;;;0.77;0.77;;;;;;;4.49;100.00;98537.16;5092159;28;20051;-80
2022/02/19 11:07:39;;;;;;;0.90;0.65;;;;;;;4.51;100.00;98528.41;5104013;28;20063;-80
2022/02/19 11:10:44;;;;;;;0.50;0.50;;;;;;;4.53;100.00;98550.75;5113561;28;20057;-80
2022/02/19 11:13:49;;;;;;;0.20;0.20;;;;;;;4.58;100.00;98537.13;5112590;28;20055;-80
2022/02/19 11:16:53;;;;;;;1.27;0.85;;;;;;;4.61;100.00;98508.59;5110088;28;20412;-82
2022/02/19 11:20:03;;;;;;;0.25;0.25;;;;;;;4.71;100.00;98497.53;5091727;28;20067;-81
2022/02/19 11:23:11;;;;;;;6.18;0.73;;;;;;;4.77;100.00;98487.38;5092786;28;20051;-81
2022/02/19 11:26:17;;;;;;;0.80;0.57;;;;;;;4.84;100.00;98487.03;5092733;28;20051;-80
2022/02/19 11:29:23;;;;;;;0.70;0.45;;;;;;;4.95;100.00;98492.78;5091784;28;20051;-81
2022/02/19 11:32:27;;;;;;;1.13;0.63;;;;;;;4.93;100.00;98479.47;5091668;28;20055;-80
2022/02/19 11:35:34;;;;;;;0.70;0.70;;;;;;;4.98;100.00;98473.28;5091861;28;20062;-80
2022/02/19 11:38:53;;;;;;;1.85;0.80;;;;;;;4.95;100.00;98459.66;5112483;28;20054;-80
2022/02/19 11:41:56;;;;;;;18.10;3.00;;;;;;;4.95;100.00;98465.19;5071897;28;20509;-81
2022/02/19 11:45:18;;;;;;;0.82;0.82;;;;;;;4.88;100.00;98482.09;5075051;28;20056;-81
2022/02/19 11:48:27;;;;;;;9.13;3.70;;;;;;;4.76;100.00;98481.09;5094039;28;20051;-81
2022/02/19 11:51:31;;;;;;;0.88;0.82;;;;;;;4.68;100.00;98479.19;5091765;28;20051;-81
2022/02/19 11:54:35;;;;;;;21.63;2.65;;;;;;;4.66;100.00;98451.31;5091101;28;20059;-80
2022/02/19 11:57:39;;;;;;;17.48;2.95;;;;;;;4.63;100.00;98443.97;5091934;28;20055;-81
2022/02/19 12:00:50;;;;;;;16.42;1.80;;;;;;;4.66;100.00;98437.53;5091418;28;20055;-80
2022/02/19 12:04:19;;;;;;;0.90;0.65;;;;;;;4.72;100.00;98432.88;5098675;28;20055;-80
2022/02/19 12:07:23;;;;;;;0.35;0.35;;;;;;;4.78;100.00;98433.75;5093579;28;20516;-81
2022/02/19 12:10:26;;;;;;;0.68;0.68;;;;;;;4.97;100.00;98424.09;5091626;28;20043;-81
2022/02/19 12:13:49;;;;;;;1.20;0.68;;;;;;;5.13;100.00;98388.53;5091611;28;20046;-81
2022/02/19 12:17:07;;;;;;;0.30;0.30;;;;;;;5.24;100.00;98390.75;5094664;28;20050;-81
2022/02/19 12:20:24;;;;;;;0.70;0.70;;;;;;;5.39;100.00;98372.19;5090870;28;20615;-80
2022/02/19 12:23:44;;;;;;;7.63;0.75;;;;;;;5.53;100.00;98368.66;5090737;28;20384;-80
2022/02/19 12:27:08;;;;;;;1.27;0.65;;;;;;;5.61;100.00;98361.50;5090541;28;20398;-79
2022/02/19 12:30:26;;;;;;;2.60;1.25;;;;;;;5.85;100.00;98358.63;5090635;28;20055;-79
2022/02/19 12:33:31;;;;;;;0.28;0.20;;;;;;;6.01;100.00;98333.25;5091326;28;20059;-80
2022/02/19 12:36:35;;;;;;;5.60;0.30;;;;;;;6.18;100.00;98330.69;5093461;28;20063;-80
2022/02/19 12:39:50;;;;;;;8.25;0.98;;;;;;;6.28;100.00;98321.78;5106587;28;20072;-79
2022/02/19 12:42:54;;;;;;;1.48;0.77;;;;;;;6.29;100.00;98323.31;5091160;28;20540;-80
2022/02/19 12:45:59;;;;;;;1.40;0.88;;;;;;;6.19;100.00;98310.88;5090557;28;20059;-80
2022/02/19 12:49:03;;;;;;;0.30;0.30;;;;;;;6.08;100.00;98311.50;5070020;28;20063;-80
2022/02/19 12:52:07;;;;;;;0.20;0.20;;;;;;;6.05;100.00;98318.00;5070549;28;20052;-82
2022/02/19 12:55:16;;;;;;;0.50;0.50;;;;;;;6.10;100.00;98316.53;5070923;28;20051;-82
2022/02/19 12:58:20;;;;;;;1.02;0.65;;;;;;;6.41;100.00;98311.13;5094725;28;20512;-82
2022/02/19 13:01:28;;;;;;;1.20;0.30;;;;;;;6.71;100.00;98289.63;5089853;28;20058;-82
2022/02/19 13:04:37;;;;;;;0.38;0.38;;;;;;;6.73;100.00;98300.97;5074373;28;20043;-83
2022/02/19 13:07:41;;;;;;;0.28;0.28;;;;;;;6.75;100.00;98306.75;5101336;28;20058;-82
2022/02/19 13:10:44;;;;;;;0.20;0.20;;;;;;;6.77;100.00;98293.97;5091572;28;20549;-84
2022/02/19 13:13:48;;;;;;;0.32;0.32;;;;;;;6.82;100.00;98289.75;5090558;28;20047;-81
2022/02/19 13:17:09;;;;;;;5.60;0.93;;;;;;;6.93;100.00;98291.84;5094317;28;20058;-80
2022/02/19 13:20:17;;;;;;;0.95;0.47;;;;;;;6.99;100.00;98282.34;5110783;28;20046;-80
2022/02/19 13:23:30;;;;;;;2.03;0.70;;;;;;;6.97;100.00;98279.31;5108982;28;20055;-80
2022/02/19 13:26:34;;;;;;;0.73;0.28;;;;;;;6.99;100.00;98276.06;5091926;28;20050;-80
2022/02/19 13:29:38;;;;;;;3.13;0.35;;;;;;;7.11;100.00;98264.59;5110995;28;20050;-80
2022/02/19 13:32:53;;;;;;;0.90;0.40;;;;;;;7.29;100.00;98274.53;5110357;28;20058;-81
2022/02/19 13:35:57;;;;;;;2.70;0.60;;;;;;;7.44;100.00;98275.16;5110757;28;20050;-79
2022/02/19 13:39:13;;;;;;;1.65;1.02;;;;;;;7.50;100.00;98249.03;5109674;28;20500;-79
2022/02/19 13:42:17;;;;;;;1.70;0.65;;;;;;;7.57;100.00;98254.13;5108732;28;20121;-78
2022/02/19 13:45:28;;;;;;;0.30;0.30;;;;;;;7.59;100.00;98259.91;5110123;28;20050;-79
2022/02/19 13:48:32;;;;;;;0.20;0.20;;;;;;;7.60;100.00;98258.66;5109703;28;20050;-80
2022/02/19 13:51:36;;;;;;;0.35;0.35;;;;;;;7.48;100.00;98246.00;5099296;28;20054;-82
2022/02/19 13:54:39;;;;;;;3.00;0.85;;;;;;;7.54;100.00;98244.00;5089140;28;20055;-81
2022/02/19 13:57:49;;;;;;;0.60;0.60;;;;;;;7.68;100.00;98244.34;5094117;28;20058;-83
2022/02/19 14:00:54;;;;;;;0.47;0.30;;;;;;;7.71;100.00;98240.59;5110679;28;20054;-82
2022/02/19 14:03:58;;;;;;;0.30;0.30;;;;;;;7.76;100.00;98242.63;5110610;28;20054;-82
2022/02/19 14:07:14;;;;;;;0.30;0.30;;;;;;;7.84;100.00;98227.06;5109435;28;20649;-82
2022/02/19 14:10:18;;;;;;;1.00;0.30;;;;;;;7.86;100.00;98235.63;5110093;28;20705;-79
2022/02/19 14:13:23;;;;;;;1.88;0.38;;;;;;;7.96;100.00;98234.16;5110395;28;20054;-82
2022/02/19 14:16:27;;;;;;;4.25;0.70;;;;;;;8.06;100.00;98238.22;5109052;28;20055;-83
2022/02/19 14:19:32;;;;;;;0.30;0.30;;;;;;;8.22;100.00;98245.88;5110580;28;20146;-82
2022/02/19 14:22:38;;;;;;;4.78;0.63;;;;;;;8.27;100.00;98254.22;5108851;28;21109;-81
2022/02/19 14:25:44;;;;;;;0.82;0.73;;;;;;;8.21;100.00;98267.28;5093824;28;20059;-81
2022/02/19 14:28:56;;;;;;;4.63;1.13;;;;;;;8.23;100.00;98258.47;5072621;28;20778;-80
2022/02/19 14:32:00;;;;;;;3.35;1.05;;;;;;;8.24;100.00;98271.09;5087838;28;20059;-80
2022/02/19 14:35:04;;;;;;;0.60;0.60;;;;;;;8.35;100.00;98271.16;5090248;28;20051;-81
2022/02/19 14:38:23;;;;;;;1.85;0.43;;;;;;;8.33;100.00;98279.22;5107471;28;20503;-85